sensor_id;sensor_type;location;lat;lon;timestamp;P1;durP1;ratioP1;P2;durP2;ratioP2
23432;SDS011;41331;45.412;10.992;2022-10-04T00:01:30;14.60;;;7.30;;
23432;SDS011;41331;45.412;10.992;2022-10-04T00:04:11;9.90;;;7.15;;
23432;SDS011;41331;45.412;10.992;2022-10-04T00:06:54;9.20;;;6.90;;
23432;SDS011;41331;45.412;10.992;2022-10-04T00:09:35;11.13;;;6.82;;
23432;SDS011;41331;45.412;10.992;2022-10-04T00:12:16;9.45;;;6.60;;
23432;SDS011;41331;45.412;10.992;2022-10-04T00:14:50;10.50;;;6.45;;
23432;SDS011;41331;45.412;10.992;2022-10-04T00:17:25;10.55;;;6.70;;
23432;SDS011;41331;45.412;10.992;2022-10-04T00:19:54;12.07;;;6.75;;
23432;SDS011;41331;45.412;10.992;2022-10-04T00:22:23;10.23;;;7.10;;
23432;SDS011;41331;45.412;10.992;2022-10-04T00:27:36;9.65;;;6.15;;
23432;SDS011;41331;45.412;10.992;2022-10-04T00:33:00;8.45;;;6.60;;
23432;SDS011;41331;45.412;10.992;2022-10-04T00:40:27;11.50;;;6.97;;
23432;SDS011;41331;45.412;10.992;2022-10-04T00:45:45;9.10;;;6.50;;
23432;SDS011;41331;45.412;10.992;2022-10-04T00:48:32;11.15;;;6.85;;
23432;SDS011;41331;45.412;10.992;2022-10-04T00:51:15;11.27;;;6.80;;
23432;SDS011;41331;45.412;10.992;2022-10-04T01:01:48;12.90;;;7.13;;
23432;SDS011;41331;45.412;10.992;2022-10-04T01:06:56;10.13;;;6.82;;
23432;SDS011;41331;45.412;10.992;2022-10-04T01:09:27;11.85;;;7.40;;
23432;SDS011;41331;45.412;10.992;2022-10-04T01:12:01;11.38;;;6.97;;
23432;SDS011;41331;45.412;10.992;2022-10-04T01:14:34;10.75;;;6.75;;
23432;SDS011;41331;45.412;10.992;2022-10-04T01:17:14;10.50;;;7.10;;
23432;SDS011;41331;45.412;10.992;2022-10-04T01:19:50;11.25;;;6.93;;
23432;SDS011;41331;45.412;10.992;2022-10-04T01:24:55;12.52;;;6.65;;
23432;SDS011;41331;45.412;10.992;2022-10-04T01:27:30;10.50;;;7.20;;
23432;SDS011;41331;45.412;10.992;2022-10-04T01:29:58;11.43;;;7.57;;
23432;SDS011;41331;45.412;10.992;2022-10-04T01:32:26;12.95;;;7.80;;
23432;SDS011;41331;45.412;10.992;2022-10-04T01:34:54;11.13;;;7.45;;
23432;SDS011;41331;45.412;10.992;2022-10-04T01:37:22;14.82;;;8.15;;
23432;SDS011;41331;45.412;10.992;2022-10-04T01:39:49;13.70;;;7.90;;
23432;SDS011;41331;45.412;10.992;2022-10-04T01:42:18;12.32;;;8.70;;
23432;SDS011;41331;45.412;10.992;2022-10-04T01:44:51;14.63;;;9.20;;
23432;SDS011;41331;45.412;10.992;2022-10-04T01:47:24;13.15;;;8.70;;
23432;SDS011;41331;45.412;10.992;2022-10-04T01:49:57;11.20;;;8.02;;
23432;SDS011;41331;45.412;10.992;2022-10-04T01:52:32;12.13;;;8.50;;
23432;SDS011;41331;45.412;10.992;2022-10-04T01:55:09;10.35;;;7.90;;
23432;SDS011;41331;45.412;10.992;2022-10-04T01:57:43;13.63;;;8.23;;
23432;SDS011;41331;45.412;10.992;2022-10-04T02:00:16;12.07;;;8.55;;
23432;SDS011;41331;45.412;10.992;2022-10-04T02:02:51;18.33;;;9.00;;
23432;SDS011;41331;45.412;10.992;2022-10-04T02:05:28;11.48;;;8.23;;
23432;SDS011;41331;45.412;10.992;2022-10-04T02:08:06;12.40;;;8.90;;
23432;SDS011;41331;45.412;10.992;2022-10-04T02:10:36;12.38;;;8.50;;
23432;SDS011;41331;45.412;10.992;2022-10-04T02:13:10;11.52;;;9.35;;
23432;SDS011;41331;45.412;10.992;2022-10-04T02:15:44;12.30;;;9.02;;
23432;SDS011;41331;45.412;10.992;2022-10-04T02:18:14;14.82;;;10.00;;
23432;SDS011;41331;45.412;10.992;2022-10-04T02:20:44;13.35;;;10.05;;
23432;SDS011;41331;45.412;10.992;2022-10-04T02:23:16;20.83;;;10.60;;
23432;SDS011;41331;45.412;10.992;2022-10-04T02:25:46;14.00;;;9.80;;
23432;SDS011;41331;45.412;10.992;2022-10-04T02:28:13;14.85;;;10.48;;
23432;SDS011;41331;45.412;10.992;2022-10-04T02:30:43;16.42;;;10.60;;
23432;SDS011;41331;45.412;10.992;2022-10-04T02:33:40;20.25;;;11.60;;
23432;SDS011;41331;45.412;10.992;2022-10-04T02:36:10;17.02;;;10.93;;
23432;SDS011;41331;45.412;10.992;2022-10-04T02:38:44;15.80;;;11.80;;
23432;SDS011;41331;45.412;10.992;2022-10-04T02:41:33;14.43;;;10.87;;
23432;SDS011;41331;45.412;10.992;2022-10-04T02:46:50;15.85;;;11.10;;
23432;SDS011;41331;45.412;10.992;2022-10-04T02:52:05;16.17;;;10.93;;
23432;SDS011;41331;45.412;10.992;2022-10-04T02:54:41;16.63;;;10.45;;
23432;SDS011;41331;45.412;10.992;2022-10-04T02:57:16;14.57;;;10.98;;
23432;SDS011;41331;45.412;10.992;2022-10-04T02:59:46;15.90;;;10.55;;
23432;SDS011;41331;45.412;10.992;2022-10-04T03:02:25;16.40;;;11.45;;
23432;SDS011;41331;45.412;10.992;2022-10-04T03:04:59;13.02;;;10.75;;
23432;SDS011;41331;45.412;10.992;2022-10-04T03:07:32;15.68;;;10.93;;
23432;SDS011;41331;45.412;10.992;2022-10-04T03:10:02;16.42;;;10.90;;
23432;SDS011;41331;45.412;10.992;2022-10-04T03:12:34;15.32;;;10.30;;
23432;SDS011;41331;45.412;10.992;2022-10-04T03:15:05;15.73;;;10.52;;
23432;SDS011;41331;45.412;10.992;2022-10-04T03:20:03;14.05;;;10.13;;
23432;SDS011;41331;45.412;10.992;2022-10-04T03:22:32;13.85;;;9.77;;
23432;SDS011;41331;45.412;10.992;2022-10-04T03:24:59;15.23;;;9.73;;
23432;SDS011;41331;45.412;10.992;2022-10-04T03:27:28;14.25;;;10.27;;
23432;SDS011;41331;45.412;10.992;2022-10-04T03:29:59;17.17;;;11.20;;
23432;SDS011;41331;45.412;10.992;2022-10-04T03:32:29;16.27;;;10.70;;
23432;SDS011;41331;45.412;10.992;2022-10-04T03:35:01;14.07;;;10.57;;
23432;SDS011;41331;45.412;10.992;2022-10-04T03:37:33;17.35;;;10.35;;
23432;SDS011;41331;45.412;10.992;2022-10-04T03:40:03;14.88;;;10.30;;
23432;SDS011;41331;45.412;10.992;2022-10-04T03:42:35;17.42;;;11.63;;
23432;SDS011;41331;45.412;10.992;2022-10-04T03:45:05;15.48;;;11.38;;
23432;SDS011;41331;45.412;10.992;2022-10-04T03:47:38;16.88;;;12.55;;
23432;SDS011;41331;45.412;10.992;2022-10-04T03:52:46;15.57;;;11.18;;
23432;SDS011;41331;45.412;10.992;2022-10-04T03:55:16;12.77;;;10.50;;
23432;SDS011;41331;45.412;10.992;2022-10-04T03:57:45;15.73;;;11.13;;
23432;SDS011;41331;45.412;10.992;2022-10-04T04:00:14;15.77;;;11.32;;
23432;SDS011;41331;45.412;10.992;2022-10-04T04:02:45;20.08;;;11.20;;
23432;SDS011;41331;45.412;10.992;2022-10-04T04:10:50;17.13;;;11.23;;
23432;SDS011;41331;45.412;10.992;2022-10-04T04:15:54;15.73;;;10.60;;
23432;SDS011;41331;45.412;10.992;2022-10-04T04:18:23;15.48;;;11.52;;
23432;SDS011;41331;45.412;10.992;2022-10-04T04:20:54;13.52;;;10.18;;
23432;SDS011;41331;45.412;10.992;2022-10-04T04:23:26;15.97;;;10.47;;
23432;SDS011;41331;45.412;10.992;2022-10-04T04:26:00;14.60;;;10.40;;
23432;SDS011;41331;45.412;10.992;2022-10-04T04:28:39;15.38;;;10.82;;
23432;SDS011;41331;45.412;10.992;2022-10-04T04:31:18;15.32;;;11.23;;
23432;SDS011;41331;45.412;10.992;2022-10-04T04:33:52;17.00;;;11.02;;
23432;SDS011;41331;45.412;10.992;2022-10-04T04:36:27;14.88;;;10.63;;
23432;SDS011;41331;45.412;10.992;2022-10-04T04:42:01;14.60;;;10.50;;
23432;SDS011;41331;45.412;10.992;2022-10-04T04:44:33;16.67;;;11.90;;
23432;SDS011;41331;45.412;10.992;2022-10-04T04:47:04;15.40;;;11.57;;
23432;SDS011;41331;45.412;10.992;2022-10-04T04:49:36;13.18;;;10.45;;
23432;SDS011;41331;45.412;10.992;2022-10-04T04:52:06;13.48;;;11.43;;
23432;SDS011;41331;45.412;10.992;2022-10-04T04:54:42;15.13;;;11.07;;
23432;SDS011;41331;45.412;10.992;2022-10-04T04:57:16;16.83;;;10.80;;
23432;SDS011;41331;45.412;10.992;2022-10-04T04:59:44;16.98;;;11.80;;
23432;SDS011;41331;45.412;10.992;2022-10-04T05:02:32;18.17;;;11.00;;
23432;SDS011;41331;45.412;10.992;2022-10-04T05:07:42;16.15;;;11.15;;
23432;SDS011;41331;45.412;10.992;2022-10-04T05:10:29;19.40;;;11.60;;
23432;SDS011;41331;45.412;10.992;2022-10-04T05:13:00;17.77;;;11.88;;
23432;SDS011;41331;45.412;10.992;2022-10-04T05:15:31;19.90;;;11.93;;
23432;SDS011;41331;45.412;10.992;2022-10-04T05:18:01;16.75;;;11.68;;
23432;SDS011;41331;45.412;10.992;2022-10-04T05:20:42;15.30;;;11.85;;
23432;SDS011;41331;45.412;10.992;2022-10-04T05:23:16;21.17;;;12.90;;
23432;SDS011;41331;45.412;10.992;2022-10-04T05:25:43;15.77;;;12.05;;
23432;SDS011;41331;45.412;10.992;2022-10-04T05:28:14;19.40;;;13.02;;
23432;SDS011;41331;45.412;10.992;2022-10-04T05:33:50;16.60;;;12.20;;
23432;SDS011;41331;45.412;10.992;2022-10-04T05:38:58;17.23;;;12.00;;
23432;SDS011;41331;45.412;10.992;2022-10-04T05:41:36;14.50;;;11.52;;
23432;SDS011;41331;45.412;10.992;2022-10-04T05:44:22;16.92;;;11.77;;
23432;SDS011;41331;45.412;10.992;2022-10-04T05:46:55;19.52;;;11.85;;
23432;SDS011;41331;45.412;10.992;2022-10-04T05:49:27;17.35;;;12.07;;
23432;SDS011;41331;45.412;10.992;2022-10-04T05:52:04;19.08;;;12.27;;
23432;SDS011;41331;45.412;10.992;2022-10-04T05:54:39;16.58;;;12.25;;
23432;SDS011;41331;45.412;10.992;2022-10-04T05:57:24;16.73;;;11.80;;
23432;SDS011;41331;45.412;10.992;2022-10-04T06:00:17;15.90;;;11.02;;
23432;SDS011;41331;45.412;10.992;2022-10-04T06:05:45;17.95;;;12.75;;
23432;SDS011;41331;45.412;10.992;2022-10-04T06:08:18;16.50;;;12.30;;
23432;SDS011;41331;45.412;10.992;2022-10-04T06:10:58;16.40;;;12.02;;
23432;SDS011;41331;45.412;10.992;2022-10-04T06:19:27;19.48;;;11.93;;
23432;SDS011;41331;45.412;10.992;2022-10-04T06:22:19;16.20;;;12.15;;
23432;SDS011;41331;45.412;10.992;2022-10-04T06:25:11;18.00;;;12.10;;
23432;SDS011;41331;45.412;10.992;2022-10-04T06:27:41;16.92;;;12.00;;
23432;SDS011;41331;45.412;10.992;2022-10-04T06:47:04;15.85;;;11.13;;
23432;SDS011;41331;45.412;10.992;2022-10-04T06:49:40;14.60;;;11.38;;
23432;SDS011;41331;45.412;10.992;2022-10-04T06:57:52;15.18;;;11.68;;
23432;SDS011;41331;45.412;10.992;2022-10-04T07:00:46;18.20;;;12.18;;
23432;SDS011;41331;45.412;10.992;2022-10-04T07:03:38;16.88;;;12.75;;
23432;SDS011;41331;45.412;10.992;2022-10-04T07:06:22;17.73;;;11.93;;
23432;SDS011;41331;45.412;10.992;2022-10-04T07:08:57;15.07;;;12.20;;
23432;SDS011;41331;45.412;10.992;2022-10-04T07:11:36;16.77;;;12.07;;
23432;SDS011;41331;45.412;10.992;2022-10-04T07:14:12;16.65;;;12.30;;
23432;SDS011;41331;45.412;10.992;2022-10-04T07:16:48;18.27;;;13.30;;
23432;SDS011;41331;45.412;10.992;2022-10-04T07:19:26;19.67;;;14.68;;
23432;SDS011;41331;45.412;10.992;2022-10-04T07:27:32;20.02;;;15.18;;
23432;SDS011;41331;45.412;10.992;2022-10-04T07:30:01;19.85;;;14.63;;
23432;SDS011;41331;45.412;10.992;2022-10-04T07:32:36;19.00;;;14.63;;
23432;SDS011;41331;45.412;10.992;2022-10-04T07:38:25;20.25;;;15.30;;
23432;SDS011;41331;45.412;10.992;2022-10-04T07:41:02;18.48;;;14.85;;
23432;SDS011;41331;45.412;10.992;2022-10-04T07:43:39;20.00;;;12.93;;
23432;SDS011;41331;45.412;10.992;2022-10-04T07:48:43;17.92;;;13.38;;
23432;SDS011;41331;45.412;10.992;2022-10-04T07:51:32;16.52;;;12.90;;
23432;SDS011;41331;45.412;10.992;2022-10-04T07:56:56;21.45;;;11.70;;
23432;SDS011;41331;45.412;10.992;2022-10-04T08:05:19;14.25;;;10.70;;
23432;SDS011;41331;45.412;10.992;2022-10-04T08:13:48;15.82;;;11.30;;
23432;SDS011;41331;45.412;10.992;2022-10-04T08:19:04;20.08;;;12.43;;
23432;SDS011;41331;45.412;10.992;2022-10-04T08:24:35;20.77;;;13.40;;
23432;SDS011;41331;45.412;10.992;2022-10-04T08:48:28;9.85;;;6.85;;
23432;SDS011;41331;45.412;10.992;2022-10-04T08:53:59;11.48;;;7.28;;
23432;SDS011;41331;45.412;10.992;2022-10-04T08:59:53;9.27;;;6.05;;
23432;SDS011;41331;45.412;10.992;2022-10-04T09:17:00;8.20;;;4.75;;
23432;SDS011;41331;45.412;10.992;2022-10-04T09:55:14;8.15;;;5.85;;
23432;SDS011;41331;45.412;10.992;2022-10-04T10:01:12;9.77;;;6.45;;
23432;SDS011;41331;45.412;10.992;2022-10-04T10:09:28;9.85;;;6.47;;
23432;SDS011;41331;45.412;10.992;2022-10-04T10:28:59;6.78;;;4.40;;
23432;SDS011;41331;45.412;10.992;2022-10-04T10:32:08;6.57;;;4.78;;
23432;SDS011;41331;45.412;10.992;2022-10-04T10:40:35;7.97;;;5.43;;
23432;SDS011;41331;45.412;10.992;2022-10-04T10:46:34;8.50;;;4.57;;
23432;SDS011;41331;45.412;10.992;2022-10-04T10:49:25;8.15;;;4.63;;
23432;SDS011;41331;45.412;10.992;2022-10-04T11:06:59;6.20;;;3.35;;
23432;SDS011;41331;45.412;10.992;2022-10-04T11:09:41;6.32;;;3.30;;
23432;SDS011;41331;45.412;10.992;2022-10-04T11:12:43;6.85;;;3.67;;
23432;SDS011;41331;45.412;10.992;2022-10-04T11:15:39;7.75;;;3.88;;
23432;SDS011;41331;45.412;10.992;2022-10-04T11:21:05;8.18;;;4.53;;
23432;SDS011;41331;45.412;10.992;2022-10-04T11:24:22;5.57;;;3.85;;
23432;SDS011;41331;45.412;10.992;2022-10-04T11:41:28;6.43;;;3.45;;
23432;SDS011;41331;45.412;10.992;2022-10-04T12:01:15;6.13;;;3.47;;
23432;SDS011;41331;45.412;10.992;2022-10-04T12:03:53;6.32;;;3.30;;
23432;SDS011;41331;45.412;10.992;2022-10-04T12:09:33;6.82;;;4.35;;
23432;SDS011;41331;45.412;10.992;2022-10-04T12:23:58;6.13;;;3.78;;
23432;SDS011;41331;45.412;10.992;2022-10-04T12:32:23;6.70;;;3.83;;
23432;SDS011;41331;45.412;10.992;2022-10-04T12:40:55;8.15;;;4.78;;
23432;SDS011;41331;45.412;10.992;2022-10-04T12:51:38;6.15;;;3.58;;
23432;SDS011;41331;45.412;10.992;2022-10-04T13:05:13;12.43;;;4.25;;
23432;SDS011;41331;45.412;10.992;2022-10-04T13:13:36;7.18;;;5.38;;
23432;SDS011;41331;45.412;10.992;2022-10-04T13:16:12;7.85;;;4.72;;
23432;SDS011;41331;45.412;10.992;2022-10-04T13:19:16;9.70;;;5.10;;
23432;SDS011;41331;45.412;10.992;2022-10-04T13:43:59;9.52;;;5.43;;
23432;SDS011;41331;45.412;10.992;2022-10-04T14:27:04;10.10;;;6.07;;
23432;SDS011;41331;45.412;10.992;2022-10-04T14:37:51;8.68;;;5.57;;
23432;SDS011;41331;45.412;10.992;2022-10-04T14:46:39;10.20;;;6.53;;
23432;SDS011;41331;45.412;10.992;2022-10-04T14:58:11;9.68;;;6.75;;
23432;SDS011;41331;45.412;10.992;2022-10-04T15:01:13;11.32;;;6.53;;
23432;SDS011;41331;45.412;10.992;2022-10-04T15:03:52;9.82;;;7.00;;
23432;SDS011;41331;45.412;10.992;2022-10-04T15:06:40;11.10;;;7.18;;
23432;SDS011;41331;45.412;10.992;2022-10-04T15:12:19;11.07;;;7.10;;
23432;SDS011;41331;45.412;10.992;2022-10-04T15:15:21;8.88;;;6.35;;
23432;SDS011;41331;45.412;10.992;2022-10-04T15:18:00;10.07;;;7.70;;
23432;SDS011;41331;45.412;10.992;2022-10-04T15:20:46;11.15;;;7.47;;
23432;SDS011;41331;45.412;10.992;2022-10-04T15:32:05;10.37;;;8.43;;
23432;SDS011;41331;45.412;10.992;2022-10-04T15:34:49;10.95;;;7.18;;
23432;SDS011;41331;45.412;10.992;2022-10-04T15:45:55;10.88;;;7.43;;
23432;SDS011;41331;45.412;10.992;2022-10-04T15:54:32;11.82;;;7.13;;
23432;SDS011;41331;45.412;10.992;2022-10-04T16:00:10;9.60;;;6.90;;
23432;SDS011;41331;45.412;10.992;2022-10-04T16:10:50;10.32;;;7.55;;
23432;SDS011;41331;45.412;10.992;2022-10-04T16:13:30;10.93;;;7.72;;
23432;SDS011;41331;45.412;10.992;2022-10-04T16:18:53;11.38;;;8.07;;
23432;SDS011;41331;45.412;10.992;2022-10-04T16:25:28;10.65;;;7.05;;
23432;SDS011;41331;45.412;10.992;2022-10-04T16:30:14;13.68;;;8.18;;
23432;SDS011;41331;45.412;10.992;2022-10-04T16:35:32;30.35;;;18.88;;
23432;SDS011;41331;45.412;10.992;2022-10-04T16:46:02;32.40;;;20.13;;
23432;SDS011;41331;45.412;10.992;2022-10-04T16:48:37;28.75;;;17.60;;
23432;SDS011;41331;45.412;10.992;2022-10-04T17:13:31;14.15;;;9.27;;
23432;SDS011;41331;45.412;10.992;2022-10-04T17:16:09;21.00;;;15.00;;
23432;SDS011;41331;45.412;10.992;2022-10-04T17:18:50;27.45;;;17.42;;
23432;SDS011;41331;45.412;10.992;2022-10-04T17:24:25;21.52;;;12.27;;
23432;SDS011;41331;45.412;10.992;2022-10-04T17:30:13;15.90;;;10.98;;
23432;SDS011;41331;45.412;10.992;2022-10-04T17:33:06;18.15;;;10.90;;
23432;SDS011;41331;45.412;10.992;2022-10-04T17:39:01;14.27;;;9.32;;
23432;SDS011;41331;45.412;10.992;2022-10-04T17:44:05;15.70;;;9.52;;
23432;SDS011;41331;45.412;10.992;2022-10-04T17:52:39;15.82;;;9.68;;
23432;SDS011;41331;45.412;10.992;2022-10-04T17:56:03;14.25;;;9.57;;
23432;SDS011;41331;45.412;10.992;2022-10-04T17:58:25;15.38;;;10.00;;
23432;SDS011;41331;45.412;10.992;2022-10-04T18:04:18;14.98;;;10.07;;
23432;SDS011;41331;45.412;10.992;2022-10-04T18:06:53;18.55;;;9.48;;
23432;SDS011;41331;45.412;10.992;2022-10-04T18:17:45;9.18;;;7.05;;
23432;SDS011;41331;45.412;10.992;2022-10-04T18:20:16;12.95;;;7.93;;
23432;SDS011;41331;45.412;10.992;2022-10-04T18:22:55;12.20;;;7.65;;
23432;SDS011;41331;45.412;10.992;2022-10-04T18:25:26;12.18;;;7.70;;
23432;SDS011;41331;45.412;10.992;2022-10-04T18:30:55;12.40;;;7.45;;
23432;SDS011;41331;45.412;10.992;2022-10-04T18:38:40;11.85;;;8.20;;
23432;SDS011;41331;45.412;10.992;2022-10-04T18:41:21;11.95;;;8.57;;
23432;SDS011;41331;45.412;10.992;2022-10-04T18:43:51;14.35;;;9.05;;
23432;SDS011;41331;45.412;10.992;2022-10-04T18:46:38;12.75;;;8.68;;
23432;SDS011;41331;45.412;10.992;2022-10-04T18:49:20;11.70;;;8.57;;
23432;SDS011;41331;45.412;10.992;2022-10-04T18:57:56;14.40;;;9.02;;
23432;SDS011;41331;45.412;10.992;2022-10-04T19:07:13;14.85;;;8.75;;
23432;SDS011;41331;45.412;10.992;2022-10-04T19:10:01;16.42;;;10.20;;
23432;SDS011;41331;45.412;10.992;2022-10-04T19:12:36;15.52;;;10.32;;
23432;SDS011;41331;45.412;10.992;2022-10-04T19:16:10;13.73;;;9.65;;
23432;SDS011;41331;45.412;10.992;2022-10-04T19:21:13;16.70;;;10.15;;
23432;SDS011;41331;45.412;10.992;2022-10-04T19:26:43;14.68;;;10.55;;
23432;SDS011;41331;45.412;10.992;2022-10-04T19:38:07;15.73;;;10.77;;
23432;SDS011;41331;45.412;10.992;2022-10-04T19:40:52;15.23;;;10.82;;
23432;SDS011;41331;45.412;10.992;2022-10-04T19:43:30;16.13;;;11.57;;
23432;SDS011;41331;45.412;10.992;2022-10-04T19:49:16;15.27;;;10.45;;
23432;SDS011;41331;45.412;10.992;2022-10-04T19:51:53;19.67;;;11.25;;
23432;SDS011;41331;45.412;10.992;2022-10-04T19:54:29;15.73;;;10.93;;
23432;SDS011;41331;45.412;10.992;2022-10-04T19:57:01;16.52;;;11.30;;
23432;SDS011;41331;45.412;10.992;2022-10-04T19:59:38;18.75;;;10.95;;
23432;SDS011;41331;45.412;10.992;2022-10-04T20:02:09;19.15;;;11.45;;
23432;SDS011;41331;45.412;10.992;2022-10-04T20:04:38;17.25;;;10.52;;
23432;SDS011;41331;45.412;10.992;2022-10-04T20:07:22;16.45;;;11.27;;
23432;SDS011;41331;45.412;10.992;2022-10-04T20:10:05;15.77;;;11.57;;
23432;SDS011;41331;45.412;10.992;2022-10-04T20:26:08;15.45;;;11.75;;
23432;SDS011;41331;45.412;10.992;2022-10-04T20:28:40;15.75;;;10.93;;
23432;SDS011;41331;45.412;10.992;2022-10-04T20:33:45;21.55;;;12.50;;
23432;SDS011;41331;45.412;10.992;2022-10-04T20:39:00;16.55;;;11.98;;
23432;SDS011;41331;45.412;10.992;2022-10-04T20:52:47;17.50;;;11.32;;
23432;SDS011;41331;45.412;10.992;2022-10-04T20:55:29;18.08;;;11.13;;
23432;SDS011;41331;45.412;10.992;2022-10-04T20:58:02;16.55;;;11.75;;
23432;SDS011;41331;45.412;10.992;2022-10-04T21:00:56;17.35;;;11.57;;
23432;SDS011;41331;45.412;10.992;2022-10-04T21:03:25;18.52;;;11.20;;
23432;SDS011;41331;45.412;10.992;2022-10-04T21:08:37;17.73;;;12.13;;
23432;SDS011;41331;45.412;10.992;2022-10-04T21:11:08;14.75;;;11.40;;
23432;SDS011;41331;45.412;10.992;2022-10-04T21:16:33;14.75;;;10.70;;
23432;SDS011;41331;45.412;10.992;2022-10-04T21:24:37;13.07;;;10.75;;
23432;SDS011;41331;45.412;10.992;2022-10-04T21:27:10;16.38;;;11.73;;
23432;SDS011;41331;45.412;10.992;2022-10-04T21:29:50;18.92;;;12.57;;
23432;SDS011;41331;45.412;10.992;2022-10-04T21:32:23;18.10;;;11.82;;
23432;SDS011;41331;45.412;10.992;2022-10-04T21:34:51;17.13;;;12.15;;
23432;SDS011;41331;45.412;10.992;2022-10-04T21:37:20;16.17;;;11.85;;
23432;SDS011;41331;45.412;10.992;2022-10-04T21:39:48;21.05;;;12.55;;
23432;SDS011;41331;45.412;10.992;2022-10-04T21:42:15;17.10;;;12.32;;
23432;SDS011;41331;45.412;10.992;2022-10-04T21:44:43;18.65;;;11.88;;
23432;SDS011;41331;45.412;10.992;2022-10-04T21:47:13;15.32;;;12.48;;
23432;SDS011;41331;45.412;10.992;2022-10-04T21:49:40;15.70;;;12.30;;
23432;SDS011;41331;45.412;10.992;2022-10-04T21:52:08;19.02;;;12.63;;
23432;SDS011;41331;45.412;10.992;2022-10-04T21:54:35;16.17;;;12.35;;
23432;SDS011;41331;45.412;10.992;2022-10-04T21:57:03;16.48;;;12.52;;
23432;SDS011;41331;45.412;10.992;2022-10-04T21:59:30;20.45;;;12.43;;
23432;SDS011;41331;45.412;10.992;2022-10-04T22:01:58;16.65;;;11.75;;
23432;SDS011;41331;45.412;10.992;2022-10-04T22:04:25;19.95;;;12.05;;
23432;SDS011;41331;45.412;10.992;2022-10-04T22:06:52;18.50;;;12.57;;
23432;SDS011;41331;45.412;10.992;2022-10-04T22:09:20;18.45;;;12.38;;
23432;SDS011;41331;45.412;10.992;2022-10-04T22:11:47;17.25;;;12.40;;
23432;SDS011;41331;45.412;10.992;2022-10-04T22:14:14;18.55;;;12.25;;
23432;SDS011;41331;45.412;10.992;2022-10-04T22:16:42;17.35;;;12.32;;
23432;SDS011;41331;45.412;10.992;2022-10-04T22:19:10;15.68;;;12.00;;
23432;SDS011;41331;45.412;10.992;2022-10-04T22:21:37;17.38;;;12.40;;
23432;SDS011;41331;45.412;10.992;2022-10-04T22:24:09;17.60;;;11.48;;
23432;SDS011;41331;45.412;10.992;2022-10-04T22:26:42;16.85;;;11.55;;
23432;SDS011;41331;45.412;10.992;2022-10-04T22:29:11;15.10;;;11.73;;
23432;SDS011;41331;45.412;10.992;2022-10-04T22:31:40;18.38;;;11.52;;
23432;SDS011;41331;45.412;10.992;2022-10-04T22:34:22;16.58;;;11.80;;
23432;SDS011;41331;45.412;10.992;2022-10-04T22:36:49;13.68;;;11.23;;
23432;SDS011;41331;45.412;10.992;2022-10-04T22:39:20;17.15;;;12.25;;
23432;SDS011;41331;45.412;10.992;2022-10-04T22:41:54;20.20;;;12.73;;
23432;SDS011;41331;45.412;10.992;2022-10-04T22:44:25;17.65;;;13.05;;
23432;SDS011;41331;45.412;10.992;2022-10-04T22:46:56;17.73;;;12.75;;
23432;SDS011;41331;45.412;10.992;2022-10-04T22:49:26;18.40;;;12.50;;
23432;SDS011;41331;45.412;10.992;2022-10-04T22:51:56;17.98;;;11.80;;
23432;SDS011;41331;45.412;10.992;2022-10-04T22:54:27;18.42;;;11.68;;
23432;SDS011;41331;45.412;10.992;2022-10-04T22:57:00;17.40;;;12.10;;
23432;SDS011;41331;45.412;10.992;2022-10-04T22:59:33;17.33;;;11.75;;
23432;SDS011;41331;45.412;10.992;2022-10-04T23:02:20;15.90;;;11.57;;
23432;SDS011;41331;45.412;10.992;2022-10-04T23:04:53;18.92;;;11.63;;
23432;SDS011;41331;45.412;10.992;2022-10-04T23:07:23;16.55;;;11.90;;
23432;SDS011;41331;45.412;10.992;2022-10-04T23:09:50;17.05;;;11.88;;
23432;SDS011;41331;45.412;10.992;2022-10-04T23:12:18;15.45;;;11.50;;
23432;SDS011;41331;45.412;10.992;2022-10-04T23:14:45;16.67;;;11.52;;
23432;SDS011;41331;45.412;10.992;2022-10-04T23:17:28;17.70;;;11.55;;
23432;SDS011;41331;45.412;10.992;2022-10-04T23:22:42;17.40;;;11.73;;
23432;SDS011;41331;45.412;10.992;2022-10-04T23:25:18;15.15;;;11.48;;
23432;SDS011;41331;45.412;10.992;2022-10-04T23:27:51;15.93;;;11.90;;
23432;SDS011;41331;45.412;10.992;2022-10-04T23:30:22;23.23;;;11.50;;
23432;SDS011;41331;45.412;10.992;2022-10-04T23:32:51;22.48;;;11.98;;
23432;SDS011;41331;45.412;10.992;2022-10-04T23:35:23;15.77;;;11.18;;
23432;SDS011;41331;45.412;10.992;2022-10-04T23:37:53;20.73;;;11.60;;
23432;SDS011;41331;45.412;10.992;2022-10-04T23:40:21;16.75;;;11.45;;
23432;SDS011;41331;45.412;10.992;2022-10-04T23:42:51;15.55;;;11.77;;
23432;SDS011;41331;45.412;10.992;2022-10-04T23:45:23;15.25;;;10.63;;
23432;SDS011;41331;45.412;10.992;2022-10-04T23:47:53;16.90;;;11.35;;
23432;SDS011;41331;45.412;10.992;2022-10-04T23:50:32;15.68;;;11.07;;
23432;SDS011;41331;45.412;10.992;2022-10-04T23:53:05;12.55;;;9.57;;
23432;SDS011;41331;45.412;10.992;2022-10-04T23:55:39;19.08;;;9.68;;
23432;SDS011;41331;45.412;10.992;2022-10-04T23:58:13;19.63;;;11.57;;
